Terminal Aerodrome Forecast
Issued by NWS Tulsa, OK

Home | Current Version | Previous Version | Text Only | Print | Product List | Glossary On
Versions: 1 2 3 4 5 6 7 8 9 10 11 12 13
000
FTUS44 KTSA 310500
TAFTUL
TAF
KTUL 310520Z 3106/0106 34011KT P6SM SKC
     FM311200 35012KT P6SM SCT020
     FM311600 36015G22KT P6SM SKC
     FM010000 02004KT P6SM SCT250=

USA.gov is the U.S. government's official web portal to all federal, state and local government web resources and services.